Time;durP1;ratioP1;P1;durP2;ratioP2;P2;SDS_P1;SDS_P2;PMS_P1;PMS_P2;Temp;Humidity;BMP_temperature;BMP_pressure;BME280_temperature;BME280_humidity;BME280_pressure;Samples;Min_cycle;Max_cycle;Signal;HPM_P1;HPM_P2
2023/12/10 00:00:09;;;;;;;16.92;2.90;;;10.10;99.90;;;;;;5095202;28;20058;-68
2023/12/10 00:02:35;;;;;;;18.05;3.20;;;10.10;99.90;;;;;;5095234;28;20024;-68
2023/12/10 00:05:00;;;;;;;10.82;2.63;;;10.10;99.90;;;;;;5095259;28;20028;-68
2023/12/10 00:07:26;;;;;;;18.40;2.78;;;10.10;99.90;;;;;;5095335;28;20028;-68
2023/12/10 00:09:52;;;;;;;13.75;2.78;;;10.20;99.90;;;;;;5095213;28;20027;-69
2023/12/10 00:12:17;;;;;;;14.60;3.22;;;10.20;99.90;;;;;;5095175;28;20047;-68
2023/12/10 00:14:43;;;;;;;12.50;2.95;;;10.20;99.90;;;;;;5093744;28;20031;-69
2023/12/10 00:17:09;;;;;;;15.90;2.90;;;10.20;99.90;;;;;;5094931;28;20031;-68
2023/12/10 00:19:34;;;;;;;22.42;2.45;;;10.30;99.90;;;;;;5094831;28;20025;-69
2023/12/10 00:22:00;;;;;;;15.82;2.85;;;10.30;99.90;;;;;;5095014;28;20031;-68
2023/12/10 00:24:26;;;;;;;17.17;2.72;;;10.30;99.90;;;;;;5094934;28;20519;-68
2023/12/10 00:26:52;;;;;;;14.45;2.65;;;10.30;99.90;;;;;;5094832;28;20032;-69
2023/12/10 00:29:18;;;;;;;16.95;2.95;;;10.30;99.90;;;;;;5094663;28;20052;-69
2023/12/10 00:31:44;;;;;;;18.60;3.17;;;10.30;99.90;;;;;;5094641;28;20093;-68
2023/12/10 00:34:10;;;;;;;13.40;2.30;;;10.40;99.90;;;;;;5094803;28;20091;-69
2023/12/10 00:36:36;;;;;;;23.88;3.53;;;10.40;99.90;;;;;;5094628;28;20048;-69
2023/12/10 00:39:05;;;;;;;13.85;2.22;;;10.40;99.90;;;;;;5094688;28;20033;-69
2023/12/10 00:41:31;;;;;;;15.38;3.15;;;10.40;99.90;;;;;;5094665;28;20051;-70
2023/12/10 00:43:57;;;;;;;18.55;2.78;;;10.50;99.90;;;;;;5094610;28;20029;-69
2023/12/10 00:46:22;;;;;;;17.25;2.50;;;10.50;99.90;;;;;;5094534;28;20111;-69
2023/12/10 00:48:48;;;;;;;19.15;2.70;;;10.50;99.90;;;;;;5093534;28;20036;-69
2023/12/10 00:51:21;;;;;;;13.32;2.33;;;10.50;99.90;;;;;;5094295;28;20024;-68
2023/12/10 00:53:48;;;;;;;16.70;2.50;;;10.50;99.90;;;;;;5093146;28;20403;-69
2023/12/10 00:56:14;;;;;;;20.17;2.80;;;10.50;99.90;;;;;;5094263;28;20036;-67
2023/12/10 00:58:40;;;;;;;18.80;3.10;;;10.50;99.90;;;;;;5094133;28;20025;-68
2023/12/10 01:01:07;;;;;;;19.77;2.95;;;10.50;99.90;;;;;;5094016;28;20024;-69
2023/12/10 01:03:33;;;;;;;15.80;2.53;;;10.60;99.90;;;;;;5094109;28;20052;-68
2023/12/10 01:05:59;;;;;;;18.70;3.13;;;10.50;99.90;;;;;;5093929;28;20119;-68
2023/12/10 01:08:24;;;;;;;18.08;2.63;;;10.50;99.90;;;;;;5093956;28;20032;-67
2023/12/10 01:10:50;;;;;;;20.25;2.65;;;10.50;99.90;;;;;;5093909;28;20127;-68
2023/12/10 01:13:16;;;;;;;11.75;1.83;;;10.30;99.90;;;;;;5093833;28;20059;-67
2023/12/10 01:15:41;;;;;;;18.20;3.15;;;10.30;99.90;;;;;;5093858;28;20475;-69
2023/12/10 01:18:07;;;;;;;16.92;2.95;;;10.20;99.90;;;;;;5093779;28;20025;-68
2023/12/10 01:20:33;;;;;;;15.05;2.15;;;10.10;99.90;;;;;;5093674;28;20033;-67
2023/12/10 01:23:04;;;;;;;19.23;3.10;;;10.10;99.90;;;;;;5093769;28;20029;-67
2023/12/10 01:25:29;;;;;;;15.43;2.10;;;10.10;99.90;;;;;;5070964;28;20033;-69
2023/12/10 01:27:55;;;;;;;15.70;2.33;;;10.00;99.90;;;;;;5071493;28;20048;-67
2023/12/10 01:30:24;;;;;;;13.70;3.03;;;10.00;99.90;;;;;;5071316;28;20455;-67
2023/12/10 01:32:51;;;;;;;18.52;2.88;;;10.00;99.90;;;;;;5071472;28;20033;-68
2023/12/10 01:35:17;;;;;;;12.00;2.47;;;10.00;99.90;;;;;;5071298;28;20041;-69
2023/12/10 01:37:43;;;;;;;11.57;2.28;;;10.00;99.90;;;;;;5071334;28;20051;-67
2023/12/10 01:40:09;;;;;;;14.95;2.60;;;10.00;99.90;;;;;;5071436;28;20535;-67
2023/12/10 01:42:35;;;;;;;16.30;2.20;;;10.10;99.90;;;;;;5071321;28;20037;-68
2023/12/10 01:45:04;;;;;;;16.83;3.58;;;10.10;99.90;;;;;;5071309;28;20071;-68
2023/12/10 01:47:34;;;;;;;20.05;2.72;;;10.10;99.90;;;;;;5071266;28;20032;-68
2023/12/10 01:50:04;;;;;;;17.75;2.83;;;10.10;99.90;;;;;;5071084;28;20032;-68
2023/12/10 01:52:31;;;;;;;13.95;2.67;;;10.10;99.90;;;;;;5071198;28;20024;-67
2023/12/10 01:54:58;;;;;;;17.55;2.45;;;10.10;99.90;;;;;;5054316;28;20029;-67
2023/12/10 01:57:25;;;;;;;16.55;2.10;;;10.00;99.90;;;;;;5090794;28;20032;-67
2023/12/10 01:59:51;;;;;;;17.00;2.63;;;10.10;99.90;;;;;;5092870;28;20021;-67
2023/12/10 02:02:17;;;;;;;13.48;2.72;;;10.00;99.90;;;;;;5091967;28;20028;-68
2023/12/10 02:04:43;;;;;;;16.70;2.53;;;9.90;99.90;;;;;;5092880;28;20028;-67
2023/12/10 02:07:08;;;;;;;14.15;2.67;;;9.90;99.90;;;;;;5092797;28;20080;-68
2023/12/10 02:09:34;;;;;;;18.17;3.10;;;9.70;99.90;;;;;;5092727;28;20051;-68
2023/12/10 02:12:01;;;;;;;13.02;2.20;;;9.70;99.90;;;;;;5092756;28;20049;-68
2023/12/10 02:14:26;;;;;;;10.98;3.10;;;9.60;99.90;;;;;;5092755;28;20530;-67
2023/12/10 02:16:52;;;;;;;18.08;3.00;;;9.50;99.90;;;;;;5091651;28;20050;-67
2023/12/10 02:19:17;;;;;;;11.70;2.63;;;9.40;99.90;;;;;;5091586;28;20063;-66
2023/12/10 02:21:46;;;;;;;19.50;2.70;;;9.40;99.90;;;;;;5092618;28;20033;-67
2023/12/10 02:24:16;;;;;;;18.58;2.40;;;9.40;99.90;;;;;;5092601;28;20035;-67
2023/12/10 02:26:41;;;;;;;14.63;2.30;;;9.40;99.90;;;;;;5092646;28;20024;-67
2023/12/10 02:29:08;;;;;;;17.33;2.50;;;9.40;99.90;;;;;;5092286;28;20033;-67
2023/12/10 02:31:33;;;;;;;14.57;2.08;;;9.40;99.90;;;;;;5092397;28;20029;-71
2023/12/10 02:33:59;;;;;;;17.40;2.47;;;9.40;99.90;;;;;;5092483;28;20040;-72
2023/12/10 02:36:25;;;;;;;12.02;1.98;;;9.40;99.90;;;;;;5091548;28;20043;-67
2023/12/10 02:38:50;;;;;;;21.15;2.95;;;9.50;99.90;;;;;;5092302;28;20036;-68
2023/12/10 02:41:16;;;;;;;12.82;2.42;;;9.50;99.90;;;;;;5092443;28;20047;-68
2023/12/10 02:43:42;;;;;;;17.25;2.90;;;9.50;99.90;;;;;;5092418;28;20031;-67
2023/12/10 02:46:08;;;;;;;12.05;2.10;;;9.50;99.90;;;;;;5092350;28;20058;-67
2023/12/10 02:48:33;;;;;;;11.55;1.85;;;9.50;99.90;;;;;;5091160;28;20051;-68
2023/12/10 02:50:59;;;;;;;16.95;2.35;;;9.60;99.90;;;;;;5092196;28;20036;-69
2023/12/10 02:53:24;;;;;;;14.55;2.08;;;9.60;99.90;;;;;;5092232;28;20055;-70
2023/12/10 02:55:51;;;;;;;20.77;2.22;;;9.60;99.90;;;;;;5092243;28;20149;-68
2023/12/10 02:58:17;;;;;;;13.38;2.42;;;9.60;99.90;;;;;;5092252;28;20047;-67
2023/12/10 03:00:43;;;;;;;17.70;2.50;;;9.60;99.90;;;;;;5092091;28;20036;-68
2023/12/10 03:03:09;;;;;;;12.27;2.47;;;9.60;99.90;;;;;;5092214;28;20044;-66
2023/12/10 03:05:34;;;;;;;10.60;1.98;;;9.50;99.90;;;;;;5090996;28;20037;-67
2023/12/10 03:08:00;;;;;;;19.65;3.35;;;9.50;99.90;;;;;;5092064;28;20029;-67
2023/12/10 03:10:26;;;;;;;15.77;1.73;;;9.50;99.90;;;;;;5092121;28;20020;-67
2023/12/10 03:12:51;;;;;;;12.85;2.25;;;9.50;99.90;;;;;;5092075;28;20391;-68
2023/12/10 03:15:17;;;;;;;21.65;2.60;;;9.50;99.90;;;;;;5092065;28;20076;-68
2023/12/10 03:17:43;;;;;;;11.57;2.17;;;9.40;99.90;;;;;;5092041;28;20040;-66
2023/12/10 03:20:09;;;;;;;15.82;2.67;;;9.40;99.90;;;;;;5090910;28;20036;-68
2023/12/10 03:22:35;;;;;;;11.73;2.35;;;9.40;99.90;;;;;;5091975;28;20024;-67
2023/12/10 03:25:01;;;;;;;13.25;1.88;;;9.50;99.90;;;;;;5092039;28;20025;-70
2023/12/10 03:27:26;;;;;;;16.15;1.98;;;9.40;99.90;;;;;;5091954;28;20500;-67
2023/12/10 03:29:52;;;;;;;11.85;1.65;;;9.40;99.90;;;;;;5090679;28;20084;-68
2023/12/10 03:32:17;;;;;;;16.73;1.90;;;9.50;99.90;;;;;;5091774;28;20512;-68
2023/12/10 03:34:43;;;;;;;13.70;2.72;;;9.50;99.90;;;;;;5091778;28;20033;-67
2023/12/10 03:37:09;;;;;;;13.30;2.35;;;9.50;99.90;;;;;;5091705;28;20061;-67
2023/12/10 03:39:34;;;;;;;15.60;2.90;;;9.60;99.90;;;;;;5091830;28;20025;-70
2023/12/10 03:42:00;;;;;;;11.25;2.47;;;9.60;99.90;;;;;;5091784;28;20028;-68
2023/12/10 03:44:26;;;;;;;10.82;1.77;;;9.60;99.90;;;;;;5091850;28;20028;-67
2023/12/10 03:46:51;;;;;;;11.70;1.88;;;9.60;99.90;;;;;;5091932;28;20025;-68
2023/12/10 03:49:17;;;;;;;9.27;2.00;;;9.60;99.90;;;;;;5093695;28;20111;-66
2023/12/10 03:51:43;;;;;;;12.32;2.13;;;9.60;99.90;;;;;;5095272;28;20745;-68
2023/12/10 03:54:08;;;;;;;11.48;1.85;;;9.60;99.90;;;;;;5094367;28;20028;-68
2023/12/10 03:56:34;;;;;;;12.98;2.75;;;9.60;99.90;;;;;;5095339;28;20044;-69
2023/12/10 03:58:59;;;;;;;15.82;2.78;;;9.60;99.90;;;;;;5095129;28;20028;-68
2023/12/10 04:01:25;;;;;;;13.00;1.90;;;9.60;99.90;;;;;;5094266;28;20028;-67
2023/12/10 04:03:51;;;;;;;12.88;2.38;;;9.70;99.90;;;;;;5095145;28;20036;-69
2023/12/10 04:06:16;;;;;;;19.48;2.67;;;9.60;99.90;;;;;;5095190;28;20096;-68
2023/12/10 04:08:43;;;;;;;17.60;2.05;;;9.60;99.90;;;;;;5095247;28;20036;-67
2023/12/10 04:11:08;;;;;;;18.80;2.35;;;9.60;99.90;;;;;;5095073;28;20032;-67
2023/12/10 04:13:34;;;;;;;16.25;2.47;;;9.60;99.90;;;;;;5095086;28;20479;-68
2023/12/10 04:16:03;;;;;;;16.13;2.13;;;9.70;99.90;;;;;;5095013;28;20029;-68
2023/12/10 04:18:28;;;;;;;10.27;1.83;;;9.70;99.90;;;;;;5094984;28;20080;-69
2023/12/10 04:20:54;;;;;;;12.02;2.22;;;9.80;99.90;;;;;;5094847;28;20033;-68
2023/12/10 04:23:19;;;;;;;8.45;1.95;;;9.90;99.90;;;;;;5095007;28;20036;-67
2023/12/10 04:25:45;;;;;;;9.23;2.20;;;10.00;99.90;;;;;;5094926;28;20040;-68
2023/12/10 04:28:11;;;;;;;11.10;1.85;;;10.00;99.90;;;;;;5094854;28;20036;-69
2023/12/10 04:30:36;;;;;;;15.38;2.38;;;10.10;99.90;;;;;;5094589;28;20032;-68
2023/12/10 04:33:04;;;;;;;9.98;1.77;;;10.10;99.90;;;;;;5094641;28;20020;-68
2023/12/10 04:35:30;;;;;;;15.25;2.38;;;10.20;99.90;;;;;;5094660;28;20027;-70
2023/12/10 04:37:55;;;;;;;16.10;2.63;;;10.20;99.90;;;;;;5094500;28;20057;-69
2023/12/10 04:40:22;;;;;;;13.35;2.70;;;10.20;99.90;;;;;;5094520;28;20082;-67
2023/12/10 04:42:48;;;;;;;11.20;1.98;;;10.20;99.30;;;;;;5094617;28;20027;-70
2023/12/10 04:45:14;;;;;;;12.55;2.00;;;10.20;99.90;;;;;;5093615;28;20051;-69
2023/12/10 04:47:40;;;;;;;14.93;1.98;;;10.30;99.90;;;;;;5094460;28;20021;-68
2023/12/10 04:50:06;;;;;;;14.05;2.63;;;10.30;99.90;;;;;;5094291;28;20040;-67
2023/12/10 04:52:32;;;;;;;16.42;2.45;;;10.20;99.90;;;;;;5094455;28;20024;-69
2023/12/10 04:54:58;;;;;;;14.18;1.95;;;10.20;99.90;;;;;;5094336;28;20028;-69
2023/12/10 04:57:25;;;;;;;7.03;1.85;;;10.10;99.90;;;;;;5094337;28;20092;-70
2023/12/10 04:59:51;;;;;;;9.10;1.85;;;10.10;99.90;;;;;;5092341;28;20017;-69
2023/12/10 05:02:17;;;;;;;8.77;2.65;;;10.10;99.90;;;;;;5093197;28;20050;-68
2023/12/10 05:04:44;;;;;;;13.85;1.95;;;10.00;99.90;;;;;;5093997;28;20031;-69
2023/12/10 05:07:10;;;;;;;12.75;2.15;;;10.10;99.90;;;;;;5094219;28;20017;-67
2023/12/10 05:09:35;;;;;;;11.77;2.58;;;10.10;99.90;;;;;;5094029;28;20029;-68
2023/12/10 05:12:01;;;;;;;15.55;1.88;;;10.20;99.60;;;;;;5093974;28;20033;-68
2023/12/10 05:14:26;;;;;;;11.32;2.55;;;10.20;99.60;;;;;;5092981;28;20039;-69
2023/12/10 05:16:52;;;;;;;14.43;2.65;;;10.20;99.50;;;;;;5093956;28;20066;-69
2023/12/10 05:19:18;;;;;;;13.35;2.33;;;10.20;99.10;;;;;;5093760;28;20148;-69
2023/12/10 05:21:43;;;;;;;13.73;2.75;;;10.30;99.20;;;;;;5093683;28;20054;-68
2023/12/10 05:24:09;;;;;;;14.32;2.15;;;10.30;99.40;;;;;;5093767;28;20032;-69
2023/12/10 05:26:35;;;;;;;13.60;2.38;;;10.40;99.30;;;;;;5093601;28;20024;-69
2023/12/10 05:29:01;;;;;;;15.25;2.22;;;10.40;98.80;;;;;;5092343;28;20044;-68
2023/12/10 05:31:26;;;;;;;18.67;2.92;;;10.40;98.90;;;;;;5092499;28;20040;-67
2023/12/10 05:33:52;;;;;;;14.88;2.67;;;10.50;98.80;;;;;;5093329;28;20024;-66
2023/12/10 05:36:18;;;;;;;10.30;1.70;;;10.40;98.60;;;;;;5093312;28;20044;-66
2023/12/10 05:38:43;;;;;;;13.07;1.92;;;10.40;98.60;;;;;;5093576;28;20027;-66
2023/12/10 05:41:09;;;;;;;13.77;2.75;;;10.40;98.90;;;;;;5093414;28;20376;-67
2023/12/10 05:43:35;;;;;;;15.05;2.00;;;10.40;98.70;;;;;;5092335;28;20025;-68
2023/12/10 05:46:01;;;;;;;14.02;2.53;;;10.50;98.60;;;;;;5093215;28;20039;-67
2023/12/10 05:48:27;;;;;;;13.27;2.13;;;10.50;98.60;;;;;;5093121;28;20032;-68
2023/12/10 05:50:53;;;;;;;13.63;2.08;;;10.50;98.70;;;;;;5093031;28;20023;-69
2023/12/10 05:53:19;;;;;;;12.27;2.83;;;10.50;98.90;;;;;;5093281;28;20056;-68
2023/12/10 05:55:45;;;;;;;8.77;1.73;;;10.50;98.30;;;;;;5092090;28;20021;-68
2023/12/10 05:58:11;;;;;;;8.40;1.75;;;10.50;98.50;;;;;;5093023;28;20028;-70
2023/12/10 06:00:36;;;;;;;13.00;2.13;;;10.50;98.50;;;;;;5091874;28;20024;-67
2023/12/10 06:03:02;;;;;;;9.48;1.75;;;10.50;98.60;;;;;;5091871;28;20387;-68
2023/12/10 06:05:28;;;;;;;13.32;2.58;;;10.40;98.50;;;;;;5092893;28;20028;-70
2023/12/10 06:07:54;;;;;;;11.25;1.77;;;10.40;98.50;;;;;;5092896;28;20039;-68
2023/12/10 06:10:20;;;;;;;9.57;1.60;;;10.50;98.60;;;;;;5092868;28;20021;-69
2023/12/10 06:12:46;;;;;;;15.40;2.10;;;10.50;98.70;;;;;;5092857;28;20028;-65
2023/12/10 06:15:12;;;;;;;11.85;1.95;;;10.40;98.60;;;;;;5092871;28;20382;-68
2023/12/10 06:17:38;;;;;;;10.70;1.85;;;10.40;98.40;;;;;;5075107;28;20025;-69
2023/12/10 06:20:05;;;;;;;12.43;2.00;;;10.40;98.40;;;;;;5092715;28;20017;-68
2023/12/10 06:22:30;;;;;;;12.80;3.00;;;10.50;98.50;;;;;;5092736;28;20032;-68
2023/12/10 06:24:56;;;;;;;15.73;2.80;;;10.50;98.50;;;;;;5092701;28;20048;-67
2023/12/10 06:27:22;;;;;;;15.82;2.30;;;10.50;98.20;;;;;;5092658;28;20026;-69
2023/12/10 06:29:47;;;;;;;12.05;2.28;;;10.50;98.30;;;;;;5092420;28;20112;-68
2023/12/10 06:32:13;;;;;;;10.95;2.10;;;10.50;98.30;;;;;;5092293;28;20035;-68
2023/12/10 06:34:39;;;;;;;11.95;1.63;;;10.50;98.50;;;;;;5092442;28;20035;-69
2023/12/10 06:37:04;;;;;;;15.80;3.22;;;10.50;98.50;;;;;;5092395;28;20096;-68
2023/12/10 06:39:30;;;;;;;13.23;2.22;;;10.50;98.10;;;;;;5092477;28;20099;-69
2023/12/10 06:41:55;;;;;;;11.80;2.28;;;10.50;98.30;;;;;;5092481;28;20035;-70
2023/12/10 06:44:21;;;;;;;11.55;2.15;;;10.50;98.50;;;;;;5092548;28;20056;-68
2023/12/10 06:46:51;;;;;;;16.17;2.33;;;10.50;98.20;;;;;;5092217;28;20036;-67
2023/12/10 06:49:17;;;;;;;13.77;2.38;;;10.50;98.30;;;;;;5092332;28;20046;-66
2023/12/10 06:51:43;;;;;;;16.92;2.05;;;10.50;98.20;;;;;;5092305;28;20535;-68
2023/12/10 06:54:10;;;;;;;10.13;2.00;;;10.50;98.40;;;;;;5092299;28;20024;-68
2023/12/10 06:56:40;;;;;;;13.20;2.30;;;10.50;98.30;;;;;;5092296;28;20020;-68
2023/12/10 06:59:07;;;;;;;13.75;2.60;;;10.50;98.30;;;;;;5091049;28;20088;-67
2023/12/10 07:01:39;;;;;;;18.40;2.67;;;10.50;98.30;;;;;;5091318;28;20058;-71
2023/12/10 07:04:06;;;;;;;16.85;4.03;;;10.50;98.40;;;;;;5092298;28;20020;-68
2023/12/10 07:06:32;;;;;;;11.10;2.13;;;10.50;98.30;;;;;;5092172;28;20028;-71
2023/12/10 07:08:58;;;;;;;17.58;2.30;;;10.50;98.60;;;;;;5092314;28;20032;-69
2023/12/10 07:11:24;;;;;;;10.55;2.47;;;10.50;98.40;;;;;;5092167;28;20025;-68
2023/12/10 07:13:49;;;;;;;9.52;1.95;;;10.40;98.40;;;;;;5092114;28;20078;-67
2023/12/10 07:16:18;;;;;;;13.57;3.40;;;10.40;98.30;;;;;;5092124;28;20024;-66
2023/12/10 07:18:44;;;;;;;15.23;2.42;;;10.40;98.50;;;;;;5092047;28;20103;-69
2023/12/10 07:21:10;;;;;;;15.27;2.53;;;10.40;98.40;;;;;;5091017;28;20031;-68
2023/12/10 07:23:39;;;;;;;14.00;2.95;;;10.40;98.30;;;;;;5093975;28;20021;-66
2023/12/10 07:26:04;;;;;;;17.70;2.47;;;10.40;98.10;;;;;;5096126;28;20029;-67
2023/12/10 07:28:30;;;;;;;12.60;1.83;;;10.40;98.30;;;;;;5096048;28;20550;-70
2023/12/10 07:30:56;;;;;;;15.55;2.45;;;10.50;98.20;;;;;;5095709;28;20080;-71
2023/12/10 07:33:22;;;;;;;12.38;2.88;;;10.50;98.40;;;;;;5095855;28;20107;-69
2023/12/10 07:35:48;;;;;;;10.10;2.03;;;10.40;98.10;;;;;;5095775;28;20041;-67
2023/12/10 07:38:14;;;;;;;9.98;2.58;;;10.50;98.00;;;;;;5095703;28;20050;-69
2023/12/10 07:40:40;;;;;;;10.15;1.65;;;10.50;97.90;;;;;;5095686;28;20033;-70
2023/12/10 07:43:07;;;;;;;8.73;1.83;;;10.50;98.20;;;;;;5095540;28;20029;-69
2023/12/10 07:45:32;;;;;;;10.90;2.20;;;10.50;98.20;;;;;;5095688;28;20032;-69
2023/12/10 07:47:58;;;;;;;8.93;1.67;;;10.50;98.10;;;;;;5095541;28;20039;-71
2023/12/10 07:50:23;;;;;;;9.38;1.92;;;10.50;98.10;;;;;;5095574;28;20032;-70
2023/12/10 07:52:49;;;;;;;12.85;2.03;;;10.40;97.90;;;;;;5095505;28;20024;-70
2023/12/10 07:55:15;;;;;;;13.32;1.83;;;10.50;98.00;;;;;;5077801;28;20031;-69
2023/12/10 07:57:41;;;;;;;15.20;2.15;;;10.50;97.90;;;;;;5095364;28;20025;-66
2023/12/10 08:00:07;;;;;;;10.43;1.90;;;10.50;98.00;;;;;;5095235;28;20070;-68
2023/12/10 08:02:33;;;;;;;17.13;3.50;;;10.50;97.90;;;;;;5094267;28;20035;-70
2023/12/10 08:05:03;;;;;;;14.10;2.55;;;10.50;98.00;;;;;;5095329;28;20033;-67
2023/12/10 08:07:29;;;;;;;15.07;3.17;;;10.50;97.90;;;;;;5095200;28;20013;-68
2023/12/10 08:09:55;;;;;;;16.08;2.97;;;10.50;97.90;;;;;;5095071;28;20024;-66
2023/12/10 08:12:21;;;;;;;12.80;2.10;;;10.50;98.00;;;;;;5095224;28;20017;-70
2023/12/10 08:14:46;;;;;;;12.15;2.10;;;10.50;97.90;;;;;;5095201;28;20032;-66
2023/12/10 08:17:12;;;;;;;21.35;3.38;;;10.60;98.00;;;;;;5095137;28;20023;-69
2023/12/10 08:19:38;;;;;;;18.73;3.70;;;10.60;97.80;;;;;;5094915;28;20383;-66
2023/12/10 08:22:03;;;;;;;24.90;7.13;;;10.50;98.10;;;;;;5094992;28;20039;-67
2023/12/10 08:24:29;;;;;;;19.08;4.65;;;10.50;98.00;;;;;;5094015;28;20106;-70
2023/12/10 08:26:55;;;;;;;9.95;1.65;;;10.50;98.10;;;;;;5094914;28;20036;-69
2023/12/10 08:29:20;;;;;;;27.83;9.77;;;10.50;98.20;;;;;;5094728;28;20084;-67
2023/12/10 08:31:46;;;;;;;23.45;5.35;;;10.50;98.20;;;;;;5094744;28;20036;-67
2023/12/10 08:34:12;;;;;;;31.05;10.15;;;10.60;98.10;;;;;;5093928;28;20021;-68
2023/12/10 08:36:38;;;;;;;11.02;2.97;;;10.60;98.10;;;;;;5094217;28;20079;-66
2023/12/10 08:39:04;;;;;;;12.20;2.65;;;10.50;98.20;;;;;;5094647;28;20025;-69
2023/12/10 08:41:31;;;;;;;13.63;2.53;;;10.50;98.40;;;;;;5094598;28;20035;-68
2023/12/10 08:43:56;;;;;;;19.30;2.85;;;10.60;98.30;;;;;;5094578;28;20025;-68
2023/12/10 08:46:22;;;;;;;16.27;2.70;;;10.50;98.40;;;;;;5093573;28;20025;-66
2023/12/10 08:48:48;;;;;;;12.88;2.03;;;10.50;98.50;;;;;;5094529;28;20111;-67
2023/12/10 08:51:13;;;;;;;14.75;3.15;;;10.50;98.60;;;;;;5093418;28;20024;-68
2023/12/10 08:53:39;;;;;;;9.60;1.80;;;10.50;98.30;;;;;;5094254;28;20114;-69
2023/12/10 08:56:05;;;;;;;13.68;1.85;;;10.50;98.60;;;;;;5094572;28;20025;-67
2023/12/10 08:58:32;;;;;;;19.83;3.20;;;10.50;98.50;;;;;;5094341;28;20017;-68
2023/12/10 09:00:59;;;;;;;12.90;2.33;;;10.50;98.80;;;;;;5094122;28;20028;-66
2023/12/10 09:03:25;;;;;;;17.70;2.70;;;10.50;98.80;;;;;;5094295;28;20460;-66
2023/12/10 09:05:50;;;;;;;11.38;2.08;;;10.50;99.00;;;;;;5094137;28;20032;-68
2023/12/10 09:08:17;;;;;;;11.63;2.10;;;10.50;98.70;;;;;;5094081;28;20055;-70
2023/12/10 09:10:45;;;;;;;15.13;2.78;;;10.50;98.70;;;;;;5094107;28;20027;-67
2023/12/10 09:13:11;;;;;;;12.93;2.28;;;10.50;99.00;;;;;;5094077;28;20069;-66
2023/12/10 09:15:36;;;;;;;13.02;2.33;;;10.50;99.00;;;;;;5094051;28;20028;-67
2023/12/10 09:18:02;;;;;;;14.13;2.47;;;10.50;99.20;;;;;;5093955;28;20025;-66
2023/12/10 09:20:28;;;;;;;10.30;2.03;;;10.50;99.10;;;;;;5093811;28;20032;-65
2023/12/10 09:22:54;;;;;;;15.50;3.00;;;10.50;99.10;;;;;;5093623;28;20031;-68
2023/12/10 09:25:20;;;;;;;13.65;2.53;;;10.50;99.00;;;;;;5093794;28;20088;-66
2023/12/10 09:27:45;;;;;;;15.80;3.53;;;10.50;99.10;;;;;;5093719;28;20510;-66
2023/12/10 09:30:11;;;;;;;13.40;2.72;;;10.50;99.30;;;;;;5093346;28;20025;-70
2023/12/10 09:32:39;;;;;;;15.05;3.03;;;10.50;99.30;;;;;;5093612;28;20028;-66
2023/12/10 09:35:05;;;;;;;12.18;2.05;;;10.50;99.20;;;;;;5093558;28;20029;-66
2023/12/10 09:37:31;;;;;;;10.88;2.38;;;10.50;99.50;;;;;;5093238;28;20070;-66
2023/12/10 09:39:57;;;;;;;17.90;3.38;;;10.50;99.60;;;;;;5093500;28;20023;-68
2023/12/10 09:42:23;;;;;;;9.50;2.70;;;10.50;99.50;;;;;;5093458;28;20025;-69
2023/12/10 09:44:48;;;;;;;11.57;2.20;;;10.50;99.50;;;;;;5093364;28;20036;-65
2023/12/10 09:47:16;;;;;;;13.82;2.25;;;10.50;99.60;;;;;;5093057;28;20020;-68
2023/12/10 09:49:43;;;;;;;13.45;2.05;;;10.50;99.70;;;;;;5093243;28;20024;-68
2023/12/10 09:52:12;;;;;;;10.90;2.85;;;10.50;99.80;;;;;;5093231;28;20054;-66
2023/12/10 09:54:41;;;;;;;16.40;3.38;;;10.50;99.80;;;;;;5093220;28;20021;-66
2023/12/10 09:57:07;;;;;;;14.43;4.13;;;10.50;99.80;;;;;;5093164;28;20086;-66
2023/12/10 09:59:34;;;;;;;13.82;2.40;;;10.50;99.90;;;;;;5092866;28;20275;-66
2023/12/10 10:01:59;;;;;;;13.57;2.88;;;10.60;99.90;;;;;;5093125;28;20112;-66
2023/12/10 10:04:25;;;;;;;13.20;3.15;;;10.60;99.90;;;;;;5093003;28;20032;-66
2023/12/10 10:06:51;;;;;;;8.43;1.73;;;10.60;99.90;;;;;;5092990;28;20025;-66
2023/12/10 10:09:16;;;;;;;20.15;2.75;;;10.60;99.90;;;;;;5092941;28;20071;-67
2023/12/10 10:11:47;;;;;;;20.35;2.72;;;10.60;99.90;;;;;;5092879;28;20032;-66
2023/12/10 10:14:13;;;;;;;12.40;2.17;;;10.70;99.90;;;;;;5092942;28;20367;-66
2023/12/10 10:16:39;;;;;;;14.68;2.95;;;10.60;99.90;;;;;;5092822;28;20021;-68
2023/12/10 10:19:06;;;;;;;19.38;2.38;;;10.70;99.90;;;;;;5092723;28;20031;-66
2023/12/10 10:21:32;;;;;;;15.30;2.83;;;10.70;99.90;;;;;;5092713;28;20020;-66
2023/12/10 10:23:57;;;;;;;12.52;1.98;;;10.70;99.90;;;;;;5092818;28;20040;-65
2023/12/10 10:26:23;;;;;;;8.48;2.13;;;10.70;99.90;;;;;;5092767;28;20029;-66
2023/12/10 10:28:50;;;;;;;11.10;1.73;;;10.70;99.90;;;;;;5092644;28;20028;-69
2023/12/10 10:31:18;;;;;;;10.10;2.13;;;10.70;99.90;;;;;;5092475;28;20020;-66
2023/12/10 10:33:44;;;;;;;20.75;2.55;;;10.70;99.90;;;;;;5092618;28;20039;-66
2023/12/10 10:36:10;;;;;;;13.10;2.28;;;10.70;99.90;;;;;;5092333;28;20040;-68
2023/12/10 10:38:36;;;;;;;11.50;1.80;;;10.80;99.90;;;;;;5092528;28;20033;-67
2023/12/10 10:41:02;;;;;;;13.57;1.90;;;10.80;99.90;;;;;;5092550;28;20043;-68
2023/12/10 10:43:27;;;;;;;16.48;2.53;;;10.80;99.90;;;;;;5091370;28;20029;-67
2023/12/10 10:45:54;;;;;;;15.45;2.55;;;10.80;99.90;;;;;;5091268;28;20048;-67
2023/12/10 10:48:25;;;;;;;9.65;2.13;;;10.80;99.90;;;;;;5092164;28;20020;-69
2023/12/10 10:50:53;;;;;;;13.13;2.67;;;10.80;99.90;;;;;;5092308;28;20021;-68
2023/12/10 10:53:19;;;;;;;16.17;2.88;;;10.80;99.90;;;;;;5092407;28;20027;-66
2023/12/10 10:55:48;;;;;;;14.65;2.50;;;10.90;99.90;;;;;;5092448;28;20112;-68
2023/12/10 10:58:27;;;;;;;8.77;1.70;;;10.80;99.90;;;;;;5091680;28;20016;-67
2023/12/10 11:00:57;;;;;;;12.57;2.25;;;10.90;99.90;;;;;;5092034;28;20040;-68
2023/12/10 11:03:26;;;;;;;10.27;2.22;;;10.90;99.90;;;;;;5092245;28;20021;-67
2023/12/10 11:05:55;;;;;;;19.83;2.83;;;10.90;99.90;;;;;;5092157;28;20032;-67
2023/12/10 11:08:20;;;;;;;24.83;3.17;;;10.90;99.90;;;;;;5092141;28;20024;-66
2023/12/10 11:10:55;;;;;;;19.42;2.17;;;10.90;99.90;;;;;;5092152;28;20024;-68
2023/12/10 11:13:46;;;;;;;12.85;2.13;;;11.00;99.90;;;;;;5092121;28;20023;-71
2023/12/10 11:16:13;;;;;;;17.15;2.53;;;11.10;99.90;;;;;;5092194;28;20023;-66
2023/12/10 11:18:56;;;;;;;8.70;1.95;;;11.10;99.90;;;;;;5091972;28;20032;-64
2023/12/10 11:21:22;;;;;;;15.82;2.20;;;11.20;99.90;;;;;;5091950;28;20031;-65
2023/12/10 11:23:47;;;;;;;11.82;1.92;;;11.20;99.90;;;;;;5091944;28;20028;-64
2023/12/10 11:26:13;;;;;;;12.68;1.83;;;11.30;99.90;;;;;;5091990;28;20062;-65
2023/12/10 11:28:43;;;;;;;17.90;2.35;;;11.30;99.90;;;;;;5091881;28;20080;-65
2023/12/10 11:31:10;;;;;;;17.95;2.33;;;11.40;99.90;;;;;;5091625;28;20029;-66
2023/12/10 11:33:40;;;;;;;8.18;1.73;;;11.30;99.70;;;;;;5091862;28;20021;-65
2023/12/10 11:36:09;;;;;;;11.18;2.00;;;11.40;99.60;;;;;;5091749;28;20149;-65
2023/12/10 11:38:34;;;;;;;15.23;2.40;;;11.30;99.80;;;;;;5091827;28;20020;-65
2023/12/10 11:41:00;;;;;;;10.35;1.60;;;11.40;99.90;;;;;;5090925;28;20047;-65
2023/12/10 11:43:26;;;;;;;15.13;2.25;;;11.50;99.80;;;;;;5073970;28;20033;-64
2023/12/10 11:45:56;;;;;;;10.63;1.60;;;11.50;99.50;;;;;;5091865;28;20028;-63
2023/12/10 11:48:22;;;;;;;10.80;1.90;;;11.50;99.50;;;;;;5091811;28;20016;-65
2023/12/10 11:50:49;;;;;;;13.90;1.67;;;11.50;99.60;;;;;;5091609;28;20058;-65
2023/12/10 11:53:17;;;;;;;16.65;2.35;;;11.50;99.60;;;;;;5091786;28;20021;-63
2023/12/10 11:55:43;;;;;;;12.70;2.03;;;11.50;99.60;;;;;;5091800;28;20013;-65
2023/12/10 11:58:09;;;;;;;8.50;2.05;;;11.50;99.60;;;;;;5091821;28;20443;-65
2023/12/10 12:00:35;;;;;;;8.50;1.65;;;11.60;99.40;;;;;;5091460;28;20029;-64
2023/12/10 12:03:05;;;;;;;12.32;1.98;;;11.60;99.60;;;;;;5091634;28;20035;-65
2023/12/10 12:05:31;;;;;;;11.43;1.63;;;11.60;99.60;;;;;;5091557;28;20040;-65
2023/12/10 12:07:58;;;;;;;13.52;1.73;;;11.60;99.40;;;;;;5091636;28;20063;-65
2023/12/10 12:10:24;;;;;;;12.82;2.30;;;11.60;99.60;;;;;;5094481;28;20038;-66
2023/12/10 12:12:50;;;;;;;12.75;2.35;;;11.70;99.70;;;;;;5095140;28;20036;-64
2023/12/10 12:15:16;;;;;;;10.00;2.10;;;11.70;99.80;;;;;;5095176;28;20029;-65
2023/12/10 12:17:43;;;;;;;10.77;1.77;;;11.60;99.10;;;;;;5094971;28;20024;-64
2023/12/10 12:20:16;;;;;;;14.75;1.85;;;11.60;99.40;;;;;;5094846;28;20076;-66
2023/12/10 12:22:41;;;;;;;10.98;2.10;;;11.50;99.70;;;;;;5095004;28;20013;-66
2023/12/10 12:25:07;;;;;;;12.77;2.58;;;11.50;99.90;;;;;;5095036;28;20020;-65
2023/12/10 12:27:33;;;;;;;10.15;2.28;;;11.50;99.90;;;;;;5094841;28;20074;-64
2023/12/10 12:29:59;;;;;;;12.73;2.00;;;11.50;99.90;;;;;;5094729;28;20029;-65
2023/12/10 12:32:24;;;;;;;6.90;1.58;;;11.50;99.70;;;;;;5094647;28;20035;-64
2023/12/10 12:34:50;;;;;;;14.73;2.60;;;11.60;99.90;;;;;;5094593;28;20028;-64